createdAt,value
2022-08-09T00:01:43.034Z,10.50
2022-08-09T00:04:34.399Z,6.88
2022-08-09T00:07:03.366Z,6.07
2022-08-09T00:09:35.401Z,5.68
2022-08-09T00:12:08.582Z,8.88
2022-08-09T00:14:38.362Z,8.73
2022-08-09T00:17:08.378Z,8.65
2022-08-09T00:19:55.737Z,10.32
2022-08-09T00:22:29.004Z,9.57
2022-08-09T00:25:04.042Z,9.40
2022-08-09T00:27:43.065Z,9.38
2022-08-09T00:32:52.904Z,7.80
2022-08-09T00:35:20.159Z,9.23
2022-08-09T00:37:47.728Z,7.90
2022-08-09T00:40:17.397Z,7.10
2022-08-09T00:44:20.664Z,8.68
2022-08-09T00:45:34.781Z,6.13
2022-08-09T00:48:03.357Z,7.03
2022-08-09T00:50:30.824Z,10.63
2022-08-09T00:52:58.524Z,4.88
2022-08-09T00:56:03.658Z,5.25
2022-08-09T00:58:22.203Z,7.28
2022-08-09T01:00:53.919Z,6.13
2022-08-09T01:03:28.453Z,7.80
2022-08-09T01:06:17.954Z,7.38
2022-08-09T01:09:06.127Z,8.07
2022-08-09T01:11:39.441Z,10.13
2022-08-09T01:14:09.935Z,8.68
2022-08-09T01:16:47.346Z,9.00
2022-08-09T01:19:42.544Z,8.18
2022-08-09T01:22:18.927Z,7.00
2022-08-09T01:25:07.187Z,7.63
2022-08-09T01:27:36.136Z,7.25
2022-08-09T01:30:33.477Z,7.30
2022-08-09T01:35:38.688Z,6.70
2022-08-09T01:38:15.301Z,7.50
2022-08-09T01:40:52.833Z,9.80
2022-08-09T01:43:32.316Z,7.05
2022-08-09T01:46:23.840Z,9.23
2022-08-09T01:48:54.012Z,6.60
2022-08-09T01:51:23.167Z,9.98
2022-08-09T01:53:58.096Z,9.40
2022-08-09T01:56:28.793Z,7.70
2022-08-09T01:58:57.662Z,7.20
2022-08-09T02:01:30.678Z,6.63
2022-08-09T02:04:15.874Z,8.80
2022-08-09T02:07:02.692Z,7.97
2022-08-09T02:09:41.990Z,7.72
2022-08-09T02:12:10.384Z,7.53
2022-08-09T02:14:42.923Z,7.13
2022-08-09T02:17:54.962Z,7.20
2022-08-09T02:19:59.042Z,6.07
2022-08-09T02:22:34.751Z,7.00
2022-08-09T02:25:06.747Z,7.70
2022-08-09T02:27:58.368Z,7.20
2022-08-09T02:30:23.761Z,7.47
2022-08-09T02:32:53.993Z,7.05
2022-08-09T02:35:46.273Z,6.70
2022-08-09T02:38:11.580Z,7.10
2022-08-09T02:40:49.812Z,10.40
2022-08-09T02:43:17.837Z,9.05
2022-08-09T02:45:52.828Z,10.88
2022-08-09T02:48:31.199Z,7.55
2022-08-09T02:51:02.533Z,10.20
2022-08-09T02:53:40.282Z,10.52
2022-08-09T02:56:21.793Z,8.80
2022-08-09T02:58:50.003Z,8.77
2022-08-09T03:01:21.915Z,7.78
2022-08-09T03:04:17.538Z,10.75
2022-08-09T03:06:46.779Z,10.30
2022-08-09T03:09:17.375Z,8.43
2022-08-09T03:12:06.012Z,8.38
2022-08-09T03:14:32.798Z,8.55
2022-08-09T03:17:05.461Z,7.10
2022-08-09T03:19:57.744Z,11.25
2022-08-09T03:22:25.536Z,6.63
2022-08-09T03:25:06.558Z,6.95
2022-08-09T03:27:48.055Z,8.93
2022-08-09T03:30:33.221Z,8.10
2022-08-09T03:33:05.531Z,10.05
2022-08-09T03:35:44.436Z,7.03
2022-08-09T03:38:28.841Z,7.43
2022-08-09T03:40:58.068Z,9.82
2022-08-09T03:43:31.985Z,7.20
2022-08-09T03:46:03.831Z,9.25
2022-08-09T03:48:52.770Z,8.85
2022-08-09T03:51:43.986Z,8.93
2022-08-09T03:54:11.369Z,9.48
2022-08-09T03:56:41.251Z,6.03
2022-08-09T03:59:17.199Z,6.55
2022-08-09T04:01:50.027Z,5.85
2022-08-09T04:04:18.009Z,5.90
2022-08-09T04:06:48.803Z,5.78
2022-08-09T04:09:47.847Z,7.25
2022-08-09T04:12:11.874Z,3.88
2022-08-09T04:15:00.747Z,4.18
2022-08-09T04:17:29.857Z,3.83
2022-08-09T04:20:02.547Z,9.65
2022-08-09T04:22:30.416Z,7.00
2022-08-09T04:24:59.517Z,5.10
2022-08-09T04:27:30.332Z,7.70
2022-08-09T04:30:00.097Z,9.68
2022-08-09T04:32:34.145Z,7.97
2022-08-09T04:35:08.605Z,11.95
2022-08-09T04:37:45.102Z,9.85
2022-08-09T04:40:19.547Z,8.25
2022-08-09T04:42:59.222Z,11.48
2022-08-09T04:45:30.426Z,11.30
2022-08-09T04:48:04.206Z,12.05
2022-08-09T04:50:38.058Z,8.98
2022-08-09T04:53:11.638Z,9.73
2022-08-09T04:55:57.822Z,9.80
2022-08-09T04:58:31.573Z,8.95
2022-08-09T05:01:01.244Z,12.52
2022-08-09T05:03:40.125Z,10.45
2022-08-09T05:06:11.568Z,7.70
2022-08-09T05:08:38.874Z,11.57
2022-08-09T05:11:11.729Z,11.70
2022-08-09T05:13:40.496Z,10.77
2022-08-09T05:16:08.782Z,17.60
2022-08-09T05:18:57.491Z,12.30
2022-08-09T05:21:30.348Z,18.42
2022-08-09T05:24:02.021Z,17.20
2022-08-09T05:26:37.234Z,14.95
2022-08-09T05:29:24.417Z,13.32
2022-08-09T05:32:02.075Z,15.75
2022-08-09T05:34:32.813Z,15.18
2022-08-09T05:37:01.625Z,17.27
2022-08-09T05:39:36.344Z,12.10
2022-08-09T05:42:17.273Z,15.75
2022-08-09T05:44:50.690Z,11.88
2022-08-09T05:47:19.699Z,13.55
2022-08-09T05:50:26.087Z,13.57
2022-08-09T05:52:38.503Z,12.20
2022-08-09T05:55:08.529Z,13.55
2022-08-09T05:57:56.099Z,12.43
2022-08-09T06:00:24.350Z,14.75
2022-08-09T06:02:54.157Z,14.07
2022-08-09T06:05:49.924Z,12.32
2022-08-09T06:08:10.918Z,10.40
2022-08-09T06:10:38.457Z,13.35
2022-08-09T06:13:12.414Z,10.95
2022-08-09T06:15:47.758Z,13.88
2022-08-09T06:18:19.127Z,11.27
2022-08-09T06:20:54.190Z,10.48
2022-08-09T06:23:57.356Z,12.25
2022-08-09T06:26:20.329Z,11.45
2022-08-09T06:28:49.220Z,11.05
2022-08-09T06:31:16.501Z,12.73
2022-08-09T06:33:53.124Z,13.10
2022-08-09T06:36:20.773Z,18.95
2022-08-09T06:38:57.076Z,14.38
2022-08-09T06:42:01.184Z,9.80
2022-08-09T06:44:14.780Z,11.80
2022-08-09T06:46:46.794Z,10.35
2022-08-09T06:49:22.780Z,12.65
2022-08-09T06:51:56.865Z,11.77
2022-08-09T06:54:24.300Z,17.80
2022-08-09T06:56:53.774Z,14.88
2022-08-09T07:00:52.798Z,13.25
2022-08-09T07:02:08.830Z,10.88
2022-08-09T07:04:36.771Z,11.82
2022-08-09T07:07:12.015Z,10.98
2022-08-09T07:09:53.609Z,8.43
2022-08-09T07:12:40.725Z,12.38
2022-08-09T07:16:36.410Z,10.55
2022-08-09T07:18:02.331Z,10.35
2022-08-09T07:20:30.476Z,9.65
2022-08-09T07:22:58.708Z,8.48
2022-08-09T07:25:29.943Z,9.52
2022-08-09T07:28:07.785Z,8.02
2022-08-09T07:30:36.493Z,11.40
2022-08-09T07:33:12.429Z,8.00
2022-08-09T07:35:54.011Z,7.68
2022-08-09T07:38:23.242Z,6.93
2022-08-09T07:41:00.872Z,7.72
2022-08-09T07:43:41.324Z,10.50
2022-08-09T07:46:19.083Z,7.28
2022-08-09T07:48:52.733Z,6.47
2022-08-09T07:52:05.357Z,7.93
2022-08-09T07:54:19.024Z,7.60
2022-08-09T07:56:49.586Z,6.53
2022-08-09T07:59:25.216Z,8.00
2022-08-09T08:02:02.397Z,3.92
2022-08-09T08:04:31.870Z,7.68
2022-08-09T08:07:15.508Z,7.20
2022-08-09T08:09:53.620Z,4.93
2022-08-09T08:12:32.082Z,5.47
2022-08-09T08:14:59.567Z,4.78
2022-08-09T08:17:52.440Z,6.57
2022-08-09T08:20:14.896Z,3.58
2022-08-09T08:22:42.562Z,3.15
2022-08-09T08:25:13.467Z,2.65
2022-08-09T08:27:43.999Z,2.50
2022-08-09T08:30:20.224Z,3.55
2022-08-09T08:32:52.534Z,3.10
2022-08-09T08:35:22.166Z,4.35
2022-08-09T08:38:04.877Z,3.65
2022-08-09T08:40:38.603Z,3.85
2022-08-09T08:43:13.581Z,3.83
2022-08-09T08:45:51.580Z,4.47
2022-08-09T08:48:22.533Z,4.80
2022-08-09T08:50:56.513Z,4.25
2022-08-09T08:53:23.808Z,3.55
2022-08-09T08:56:00.499Z,4.07
2022-08-09T08:58:29.550Z,3.33
2022-08-09T09:01:02.904Z,4.72
2022-08-09T09:03:38.247Z,6.55
2022-08-09T09:06:07.930Z,3.15
2022-08-09T09:08:40.903Z,2.47
2022-08-09T09:13:55.015Z,2.85
2022-08-09T09:16:35.612Z,3.08
2022-08-09T09:19:37.191Z,3.15
2022-08-09T09:21:59.264Z,1.23
2022-08-09T09:24:30.040Z,3.50
2022-08-09T09:26:58.732Z,4.68
2022-08-09T09:30:10.608Z,3.35
2022-08-09T09:32:35.416Z,3.97
2022-08-09T09:35:09.580Z,2.97
2022-08-09T09:37:40.545Z,2.78
2022-08-09T09:40:12.402Z,2.70
2022-08-09T09:42:43.059Z,1.30
2022-08-09T09:45:26.444Z,2.28
2022-08-09T09:50:50.607Z,3.42
2022-08-09T09:53:20.376Z,1.52
2022-08-09T09:56:03.882Z,2.08
2022-08-09T09:58:44.829Z,1.52
2022-08-09T10:01:36.879Z,2.13
2022-08-09T10:04:10.146Z,2.40
2022-08-09T10:06:43.323Z,1.58
2022-08-09T10:09:22.929Z,2.83
2022-08-09T10:12:14.163Z,1.40
2022-08-09T10:14:49.473Z,0.77
2022-08-09T10:17:39.111Z,4.00
2022-08-09T10:20:15.022Z,2.10
2022-08-09T10:22:42.954Z,1.33
2022-08-09T10:25:14.729Z,1.45
2022-08-09T10:27:56.002Z,4.93
2022-08-09T10:33:29.639Z,4.22
2022-08-09T10:36:00.827Z,1.42
2022-08-09T10:38:55.400Z,1.38
2022-08-09T10:41:17.973Z,1.45
2022-08-09T10:43:59.621Z,3.97
2022-08-09T10:46:55.223Z,2.00
2022-08-09T10:49:51.501Z,1.13
2022-08-09T10:52:42.933Z,1.25
2022-08-09T10:55:27.625Z,0.60
2022-08-09T10:58:00.115Z,2.78
2022-08-09T11:00:50.996Z,1.98
2022-08-09T11:03:49.957Z,1.35
2022-08-09T11:06:18.993Z,2.97
2022-08-09T11:08:51.725Z,2.40
2022-08-09T11:11:22.533Z,3.33
2022-08-09T11:14:09.543Z,0.80
2022-08-09T11:16:44.251Z,1.52
2022-08-09T11:19:14.275Z,1.10
2022-08-09T11:21:57.264Z,1.95
2022-08-09T11:24:52.641Z,1.88
2022-08-09T11:28:04.172Z,0.90
2022-08-09T11:30:32.607Z,1.55
2022-08-09T11:33:22.203Z,0.95
2022-08-09T11:35:59.866Z,2.20
2022-08-09T11:38:28.666Z,2.75
2022-08-09T11:41:07.255Z,0.63
2022-08-09T11:43:43.294Z,0.60
2022-08-09T11:46:10.702Z,0.60
2022-08-09T11:48:50.316Z,2.97
2022-08-09T11:52:06.739Z,1.85
2022-08-09T11:54:30.106Z,3.42
2022-08-09T11:57:28.306Z,1.25
2022-08-09T12:00:13.183Z,1.65
2022-08-09T12:02:51.025Z,1.42
2022-08-09T12:05:22.886Z,3.17
2022-08-09T12:07:52.661Z,1.55
2022-08-09T12:10:38.918Z,3.85
2022-08-09T12:14:07.194Z,2.50
2022-08-09T12:16:07.981Z,1.73
2022-08-09T12:18:55.633Z,1.77
2022-08-09T12:21:38.161Z,1.65
2022-08-09T12:28:59.751Z,1.73
2022-08-09T12:29:51.476Z,1.15
2022-08-09T12:32:28.806Z,1.77
2022-08-09T12:35:03.138Z,4.53
2022-08-09T12:37:33.751Z,1.60
2022-08-09T12:40:17.948Z,0.70
2022-08-09T12:42:46.481Z,2.08
2022-08-09T12:45:32.365Z,0.93
2022-08-09T12:48:03.168Z,1.90
2022-08-09T12:50:30.701Z,0.70
2022-08-09T12:53:09.019Z,1.35
2022-08-09T12:56:14.243Z,1.13
2022-08-09T12:58:32.704Z,1.70
2022-08-09T13:01:04.653Z,0.90
2022-08-09T13:03:53.330Z,2.47
2022-08-09T13:06:37.544Z,3.28
2022-08-09T13:09:14.188Z,1.38
2022-08-09T13:11:43.611Z,0.93
2022-08-09T13:14:42.232Z,2.75
2022-08-09T13:17:03.376Z,0.95
2022-08-09T13:20:11.303Z,2.88
2022-08-09T13:22:36.783Z,1.88
2022-08-09T13:25:13.750Z,2.20
2022-08-09T13:27:54.603Z,0.80
2022-08-09T13:30:49.454Z,2.22
2022-08-09T13:33:11.639Z,0.85
2022-08-09T13:36:39.656Z,5.07
2022-08-09T13:38:54.666Z,1.95
2022-08-09T13:41:58.512Z,1.73
2022-08-09T13:44:13.728Z,5.88
2022-08-09T13:47:16.227Z,3.00
2022-08-09T13:49:37.469Z,3.40
2022-08-09T13:52:09.392Z,1.15
2022-08-09T13:54:41.778Z,2.15
2022-08-09T13:57:36.248Z,1.55
2022-08-09T14:00:05.169Z,1.20
2022-08-09T14:02:33.163Z,2.60
2022-08-09T14:05:10.118Z,1.33
2022-08-09T14:07:40.986Z,1.38
2022-08-09T14:10:09.451Z,1.95
2022-08-09T14:12:44.695Z,0.80
2022-08-09T14:16:06.364Z,5.10
2022-08-09T14:18:18.705Z,1.13
2022-08-09T14:20:48.951Z,1.95
2022-08-09T14:23:20.411Z,3.33
2022-08-09T14:26:05.954Z,1.90
2022-08-09T14:28:34.534Z,1.58
2022-08-09T14:31:01.589Z,4.18
2022-08-09T14:33:28.676Z,1.70
2022-08-09T14:35:59.290Z,2.58
2022-08-09T14:38:46.327Z,2.40
2022-08-09T14:41:39.508Z,0.70
2022-08-09T14:44:09.636Z,2.53
2022-08-09T14:47:03.085Z,2.92
2022-08-09T14:49:34.435Z,5.78
2022-08-09T14:52:13.467Z,5.78
2022-08-09T14:54:42.432Z,3.95
2022-08-09T14:57:09.556Z,2.13
2022-08-09T14:59:38.594Z,4.43
2022-08-09T15:02:09.459Z,1.45
2022-08-09T15:04:40.223Z,1.23
2022-08-09T15:07:10.616Z,0.70
2022-08-09T15:10:07.246Z,0.95
2022-08-09T15:12:27.618Z,1.02
2022-08-09T15:14:54.770Z,1.08
2022-08-09T15:17:22.128Z,1.23
2022-08-09T15:19:59.605Z,0.90
2022-08-09T15:22:27.295Z,2.70
2022-08-09T15:24:58.511Z,3.15
2022-08-09T15:27:27.470Z,2.72
2022-08-09T15:30:55.571Z,0.93
2022-08-09T15:32:45.520Z,0.80
2022-08-09T15:35:40.098Z,0.88
2022-08-09T15:38:10.971Z,2.53
2022-08-09T15:40:43.736Z,1.75
2022-08-09T15:45:51.653Z,1.70
2022-08-09T15:48:31.733Z,2.38
2022-08-09T15:51:00.245Z,1.75
2022-08-09T15:54:04.442Z,2.05
2022-08-09T15:56:28.733Z,2.53
2022-08-09T15:58:58.253Z,2.25
2022-08-09T16:01:31.295Z,0.70
2022-08-09T16:04:03.077Z,1.08
2022-08-09T16:06:35.766Z,1.52
2022-08-09T16:09:07.568Z,1.25
2022-08-09T16:11:34.731Z,1.08
2022-08-09T16:14:09.594Z,3.22
2022-08-09T16:16:41.931Z,2.95
2022-08-09T16:19:16.163Z,2.20
2022-08-09T16:21:52.013Z,3.22
2022-08-09T16:24:33.175Z,1.13
2022-08-09T16:27:01.230Z,4.30
2022-08-09T16:29:37.752Z,1.30
2022-08-09T16:32:33.673Z,1.70
2022-08-09T16:35:02.662Z,1.42
2022-08-09T16:37:54.863Z,1.10
2022-08-09T16:40:20.651Z,5.32
2022-08-09T16:43:06.347Z,2.90
2022-08-09T16:45:33.462Z,3.28
2022-08-09T16:48:38.850Z,2.17
2022-08-09T16:50:59.109Z,1.48
2022-08-09T16:53:34.689Z,1.20
2022-08-09T16:56:09.359Z,2.03
2022-08-09T16:58:39.638Z,5.90
2022-08-09T17:01:10.483Z,2.20
2022-08-09T17:03:37.758Z,2.20
2022-08-09T17:06:28.483Z,2.35
2022-08-09T17:09:01.834Z,1.55
2022-08-09T17:11:41.654Z,1.75
2022-08-09T17:14:25.921Z,2.35
2022-08-09T17:16:55.992Z,6.03
2022-08-09T17:19:23.377Z,2.42
2022-08-09T17:21:54.603Z,3.33
2022-08-09T17:24:28.349Z,3.80
2022-08-09T17:26:58.482Z,1.40
2022-08-09T17:29:31.775Z,0.80
2022-08-09T17:32:05.377Z,0.70
2022-08-09T17:35:06.344Z,0.73
2022-08-09T17:37:22.235Z,1.92
2022-08-09T17:39:53.800Z,1.85
2022-08-09T17:42:40.966Z,1.02
2022-08-09T17:45:15.794Z,1.27
2022-08-09T17:47:55.540Z,2.55
2022-08-09T17:50:37.060Z,5.80
2022-08-09T17:53:19.622Z,5.18
2022-08-09T17:55:54.116Z,1.20
2022-08-09T17:58:27.021Z,1.77
2022-08-09T18:00:58.313Z,2.17
2022-08-09T18:03:30.365Z,1.20
2022-08-09T18:06:00.939Z,1.10
2022-08-09T18:08:31.878Z,1.52
2022-08-09T18:11:02.190Z,2.65
2022-08-09T18:13:38.845Z,2.03
2022-08-09T18:16:28.829Z,2.90
2022-08-09T18:19:03.928Z,2.15
2022-08-09T18:21:46.106Z,2.63
2022-08-09T18:24:17.296Z,3.25
2022-08-09T18:26:49.387Z,3.88
2022-08-09T18:30:40.546Z,4.80
2022-08-09T18:32:05.465Z,1.25
2022-08-09T18:34:35.637Z,2.13
2022-08-09T18:37:03.750Z,4.78
2022-08-09T18:39:32.801Z,4.68
2022-08-09T18:42:05.442Z,1.70
2022-08-09T18:44:36.482Z,12.73
2022-08-09T18:47:09.967Z,2.63
2022-08-09T18:49:46.500Z,0.95
2022-08-09T18:52:18.590Z,3.33
2022-08-09T18:54:53.435Z,1.10
2022-08-09T18:57:42.763Z,7.93
2022-08-09T19:00:16.722Z,5.57
2022-08-09T19:02:50.897Z,5.82
2022-08-09T19:05:20.452Z,3.58
2022-08-09T19:08:10.505Z,3.80
2022-08-09T19:13:19.970Z,1.08
2022-08-09T19:15:52.559Z,2.38
2022-08-09T19:18:33.080Z,3.80
2022-08-09T19:21:08.899Z,1.10
2022-08-09T19:24:33.463Z,1.00
2022-08-09T19:26:32.242Z,0.73
2022-08-09T19:29:03.669Z,0.95
2022-08-09T19:31:45.732Z,0.90
2022-08-09T19:34:21.566Z,2.65
2022-08-09T19:36:50.890Z,2.88
2022-08-09T19:39:21.014Z,1.67
2022-08-09T19:41:59.980Z,6.88
2022-08-09T19:44:29.819Z,3.17
2022-08-09T19:46:57.434Z,1.70
2022-08-09T19:50:07.709Z,1.63
2022-08-09T19:52:14.032Z,1.58
2022-08-09T19:54:41.385Z,1.20
2022-08-09T19:57:10.349Z,2.97
2022-08-09T19:59:59.503Z,1.02
2022-08-09T20:04:10.032Z,2.55
2022-08-09T20:05:16.756Z,8.20
2022-08-09T20:07:57.174Z,1.02
2022-08-09T20:10:34.959Z,1.83
2022-08-09T20:13:06.720Z,3.80
2022-08-09T20:16:33.029Z,2.70
2022-08-09T20:18:27.811Z,2.97
2022-08-09T20:20:56.959Z,3.45
2022-08-09T20:23:39.729Z,2.83
2022-08-09T20:28:47.952Z,1.98
2022-08-09T20:31:16.240Z,5.00
2022-08-09T20:33:44.631Z,4.00
2022-08-09T20:36:12.461Z,2.38
2022-08-09T20:41:32.302Z,3.03
2022-08-09T20:44:04.468Z,7.82
2022-08-09T20:46:43.898Z,3.17
2022-08-09T20:49:13.551Z,1.90
2022-08-09T20:51:42.157Z,1.23
2022-08-09T20:54:12.515Z,2.55
2022-08-09T20:56:40.959Z,1.05
2022-08-09T20:59:08.305Z,2.40
2022-08-09T21:01:50.367Z,1.67
2022-08-09T21:05:52.882Z,3.08
2022-08-09T21:07:11.901Z,5.05
2022-08-09T21:09:55.551Z,2.95
2022-08-09T21:15:13.069Z,3.65
2022-08-09T21:18:11.237Z,4.05
2022-08-09T21:20:31.852Z,1.15
2022-08-09T21:23:00.508Z,3.15
2022-08-09T21:25:55.978Z,2.05
2022-08-09T21:28:36.038Z,3.63
2022-08-09T21:31:17.391Z,2.05
2022-08-09T21:33:50.760Z,2.80
2022-08-09T21:36:19.840Z,2.30
2022-08-09T21:38:51.079Z,1.40
2022-08-09T21:42:05.973Z,1.92
2022-08-09T21:44:32.440Z,1.60
2022-08-09T21:47:01.687Z,3.88
2022-08-09T21:49:28.973Z,1.05
2022-08-09T21:52:14.354Z,2.58
2022-08-09T21:54:46.082Z,3.30
2022-08-09T21:57:36.773Z,1.10
2022-08-09T22:00:00.883Z,3.38
2022-08-09T22:02:36.061Z,5.13
2022-08-09T22:05:17.094Z,2.65
2022-08-09T22:07:54.195Z,3.22
2022-08-09T22:10:23.096Z,2.55
2022-08-09T22:12:52.150Z,5.68
2022-08-09T22:15:20.727Z,3.13
2022-08-09T22:17:51.291Z,5.95
2022-08-09T22:20:21.801Z,2.80
2022-08-09T22:23:02.199Z,1.25
2022-08-09T22:26:07.384Z,6.50
2022-08-09T22:28:21.014Z,2.03
2022-08-09T22:30:56.850Z,3.65
2022-08-09T22:33:48.601Z,2.00
2022-08-09T22:36:19.462Z,3.70
2022-08-09T22:38:47.164Z,2.35
2022-08-09T22:41:14.256Z,1.13
2022-08-09T22:44:03.514Z,1.50
2022-08-09T22:48:18.483Z,1.20
2022-08-09T22:49:18.965Z,2.35
2022-08-09T22:51:49.382Z,3.03
2022-08-09T22:54:27.339Z,3.38
2022-08-09T22:56:58.634Z,1.45
2022-08-09T22:59:57.166Z,1.52
2022-08-09T23:02:15.163Z,4.53
2022-08-09T23:04:54.060Z,3.85
2022-08-09T23:08:23.252Z,2.75
2022-08-09T23:10:29.364Z,3.90
2022-08-09T23:12:56.970Z,1.30
2022-08-09T23:15:24.132Z,3.17
2022-08-09T23:17:51.272Z,5.95
2022-08-09T23:20:18.363Z,1.17
2022-08-09T23:22:46.768Z,1.15
2022-08-09T23:25:14.163Z,1.88
2022-08-09T23:28:14.986Z,1.90
2022-08-09T23:30:29.801Z,2.10
2022-08-09T23:32:56.903Z,1.50
2022-08-09T23:35:26.003Z,1.38
2022-08-09T23:37:53.353Z,4.00
2022-08-09T23:40:22.206Z,1.70
2022-08-09T23:42:49.258Z,1.27
2022-08-09T23:45:37.318Z,1.73
2022-08-09T23:48:08.580Z,3.50
2022-08-09T23:50:36.206Z,2.47
2022-08-09T23:53:03.550Z,2.00
2022-08-09T23:55:30.757Z,3.13
2022-08-09T23:58:07.887Z,1.20
